createdAt,value
2022-08-22T00:01:17.690Z,99.90
2022-08-22T00:04:03.887Z,99.90
2022-08-22T00:06:36.693Z,99.90
2022-08-22T00:09:17.197Z,99.90
2022-08-22T00:11:55.010Z,99.90
2022-08-22T00:14:33.822Z,99.90
2022-08-22T00:17:05.305Z,99.90
2022-08-22T00:19:55.160Z,99.90
2022-08-22T00:22:45.377Z,99.90
2022-08-22T00:25:24.563Z,99.90
2022-08-22T00:28:10.790Z,99.90
2022-08-22T00:31:00.582Z,99.90
2022-08-22T00:33:39.524Z,99.90
2022-08-22T00:36:47.891Z,99.90
2022-08-22T00:39:21.338Z,99.90
2022-08-22T00:42:02.421Z,99.90
2022-08-22T00:45:00.004Z,99.90
2022-08-22T00:47:38.316Z,99.90
2022-08-22T00:50:20.702Z,99.90
2022-08-22T00:52:54.084Z,99.90
2022-08-22T00:55:43.704Z,99.90
2022-08-22T00:58:50.329Z,99.90
2022-08-22T01:01:22.490Z,99.90
2022-08-22T01:04:06.130Z,99.90
2022-08-22T01:06:49.509Z,99.90
2022-08-22T01:09:49.782Z,99.90
2022-08-22T01:12:30.294Z,99.90
2022-08-22T01:15:10.042Z,99.90
2022-08-22T01:17:39.704Z,99.90
2022-08-22T01:20:37.768Z,99.90
2022-08-22T01:23:26.195Z,99.90
2022-08-22T01:25:55.933Z,99.90
2022-08-22T01:28:45.872Z,99.90
2022-08-22T01:31:43.293Z,99.90
2022-08-22T01:34:40.533Z,99.90
2022-08-22T01:37:20.026Z,99.90
2022-08-22T01:40:08.032Z,99.90
2022-08-22T01:43:08.872Z,99.90
2022-08-22T01:46:12.873Z,99.90
2022-08-22T01:49:14.782Z,99.90
2022-08-22T01:51:47.282Z,99.90
2022-08-22T01:54:24.187Z,99.90
2022-08-22T01:56:51.182Z,99.90
2022-08-22T01:59:34.025Z,99.90
2022-08-22T02:02:31.144Z,99.90
2022-08-22T02:05:52.193Z,99.90
2022-08-22T02:08:46.577Z,99.90
2022-08-22T02:11:42.542Z,99.90
2022-08-22T02:14:37.872Z,99.90
2022-08-22T02:17:19.180Z,99.90
2022-08-22T02:20:10.335Z,99.90
2022-08-22T02:23:15.013Z,99.90
2022-08-22T02:25:56.710Z,99.90
2022-08-22T02:28:38.343Z,99.90
2022-08-22T02:31:16.711Z,99.90
2022-08-22T02:33:52.613Z,99.90
2022-08-22T02:36:25.217Z,99.90
2022-08-22T02:38:52.188Z,99.90
2022-08-22T02:42:00.019Z,99.90
2022-08-22T02:44:33.134Z,99.90
2022-08-22T02:47:09.503Z,99.90
2022-08-22T02:49:48.473Z,99.90
2022-08-22T02:52:50.737Z,99.90
2022-08-22T02:55:51.806Z,99.90
2022-08-22T02:58:36.786Z,99.90
2022-08-22T03:01:03.822Z,99.90
2022-08-22T03:03:38.507Z,99.90
2022-08-22T03:06:28.208Z,99.90
2022-08-22T03:09:05.731Z,99.90
2022-08-22T03:11:38.894Z,99.90
2022-08-22T03:14:14.644Z,99.90
2022-08-22T03:17:08.647Z,99.90
2022-08-22T03:20:19.291Z,99.90
2022-08-22T03:22:56.407Z,99.90
2022-08-22T03:25:31.934Z,99.90
2022-08-22T03:28:18.229Z,99.90
2022-08-22T03:31:08.772Z,99.90
2022-08-22T03:33:35.713Z,99.90
2022-08-22T03:36:23.880Z,99.90
2022-08-22T03:39:08.791Z,99.90
2022-08-22T03:41:53.138Z,99.90
2022-08-22T03:44:44.669Z,99.90
2022-08-22T03:47:28.577Z,99.90
2022-08-22T03:50:04.562Z,99.90
2022-08-22T03:53:06.775Z,99.90
2022-08-22T03:56:16.850Z,99.90
2022-08-22T03:59:34.454Z,99.90
2022-08-22T04:02:41.824Z,99.90
2022-08-22T04:05:32.193Z,99.90
2022-08-22T04:08:14.618Z,99.90
2022-08-22T04:11:07.649Z,99.90
2022-08-22T04:13:49.984Z,99.90
2022-08-22T04:16:44.902Z,99.90
2022-08-22T04:19:32.634Z,99.90
2022-08-22T04:22:21.078Z,99.90
2022-08-22T04:25:16.884Z,99.90
2022-08-22T04:28:00.800Z,99.90
2022-08-22T04:30:45.436Z,99.90
2022-08-22T04:33:19.245Z,99.90
2022-08-22T04:36:16.176Z,99.90
2022-08-22T04:39:01.913Z,99.90
2022-08-22T04:41:50.887Z,99.90
2022-08-22T04:44:28.348Z,99.90
2022-08-22T04:47:04.779Z,99.90
2022-08-22T04:49:34.840Z,99.90
2022-08-22T04:52:20.257Z,99.90
2022-08-22T04:54:50.213Z,99.90
2022-08-22T04:57:23.222Z,99.90
2022-08-22T04:59:51.229Z,99.90
2022-08-22T05:02:24.265Z,99.90
2022-08-22T05:05:00.323Z,99.90
2022-08-22T05:07:36.946Z,99.90
2022-08-22T05:10:13.507Z,99.90
2022-08-22T05:12:45.250Z,99.90
2022-08-22T05:15:26.381Z,99.90
2022-08-22T05:17:57.868Z,99.90
2022-08-22T05:20:27.534Z,99.90
2022-08-22T05:23:18.015Z,99.90
2022-08-22T05:25:48.689Z,99.90
2022-08-22T05:28:38.378Z,99.90
2022-08-22T05:31:14.101Z,99.90
2022-08-22T05:33:43.713Z,99.90
2022-08-22T05:36:14.810Z,99.90
2022-08-22T05:39:11.666Z,99.90
2022-08-22T05:41:40.626Z,99.90
2022-08-22T05:44:20.469Z,99.90
2022-08-22T05:47:10.561Z,99.90
2022-08-22T05:49:44.927Z,99.90
2022-08-22T05:52:39.953Z,99.90
2022-08-22T05:55:12.905Z,99.90
2022-08-22T05:57:46.402Z,99.90
2022-08-22T06:00:19.189Z,99.90
2022-08-22T06:03:15.756Z,99.90
2022-08-22T06:05:51.117Z,99.90
2022-08-22T06:08:23.423Z,99.90
2022-08-22T06:10:54.993Z,99.90
2022-08-22T06:13:34.251Z,99.90
2022-08-22T06:16:21.349Z,99.90
2022-08-22T06:18:50.502Z,99.90
2022-08-22T06:21:39.605Z,99.90
2022-08-22T06:24:13.009Z,99.90
2022-08-22T06:26:48.259Z,99.90
2022-08-22T06:29:43.375Z,99.90
2022-08-22T06:32:27.895Z,99.90
2022-08-22T06:35:16.838Z,99.90
2022-08-22T06:37:46.698Z,99.90
2022-08-22T06:40:16.501Z,99.90
2022-08-22T06:42:47.595Z,99.90
2022-08-22T06:45:20.073Z,99.90
2022-08-22T06:47:53.749Z,99.90
2022-08-22T06:50:25.128Z,99.90
2022-08-22T06:53:01.072Z,99.90
2022-08-22T06:55:30.003Z,99.90
2022-08-22T06:58:03.976Z,99.90
2022-08-22T07:00:35.573Z,99.90
2022-08-22T07:03:26.973Z,99.90
2022-08-22T07:05:56.321Z,99.90
2022-08-22T07:08:25.790Z,99.90
2022-08-22T07:11:11.668Z,99.90
2022-08-22T07:13:41.677Z,99.90
2022-08-22T07:16:17.063Z,99.90
2022-08-22T07:18:49.506Z,99.90
2022-08-22T07:21:45.941Z,99.90
2022-08-22T07:24:20.517Z,99.90
2022-08-22T07:27:37.516Z,99.90
2022-08-22T07:30:04.473Z,99.90
2022-08-22T07:32:55.557Z,99.90
2022-08-22T07:35:37.057Z,99.90
2022-08-22T07:38:25.794Z,99.90
2022-08-22T07:40:57.399Z,99.90
2022-08-22T07:43:42.896Z,99.90
2022-08-22T07:46:50.213Z,99.70
2022-08-22T07:49:25.944Z,94.00
2022-08-22T07:51:56.697Z,88.20
2022-08-22T07:54:31.692Z,83.60
2022-08-22T07:57:02.726Z,77.30
2022-08-22T07:59:33.311Z,71.70
2022-08-22T08:02:05.350Z,70.40
2022-08-22T08:04:39.991Z,67.70
2022-08-22T08:07:10.672Z,66.50
2022-08-22T08:09:43.296Z,66.10
2022-08-22T08:12:12.063Z,65.40
2022-08-22T08:14:44.134Z,64.20
2022-08-22T08:17:23.572Z,63.00
2022-08-22T08:19:51.929Z,61.30
2022-08-22T08:22:24.973Z,60.00
2022-08-22T08:24:55.893Z,63.60
2022-08-22T08:27:44.946Z,69.80
2022-08-22T08:30:24.614Z,68.20
2022-08-22T08:32:59.613Z,62.30
2022-08-22T08:36:03.388Z,60.80
2022-08-22T08:38:55.529Z,64.30
2022-08-22T08:41:55.264Z,71.20
2022-08-22T08:44:43.456Z,74.00
2022-08-22T08:47:22.409Z,74.80
2022-08-22T08:50:15.982Z,72.20
2022-08-22T08:53:06.040Z,66.90
2022-08-22T08:55:51.830Z,66.50
2022-08-22T08:58:47.393Z,64.60
2022-08-22T09:01:36.009Z,62.70
2022-08-22T09:04:17.905Z,61.50
2022-08-22T09:07:06.508Z,59.20
2022-08-22T09:09:59.551Z,56.90
2022-08-22T09:13:12.419Z,56.80
2022-08-22T09:16:04.561Z,57.20
2022-08-22T09:19:13.080Z,56.80
2022-08-22T09:22:17.605Z,56.70
2022-08-22T09:25:15.270Z,58.40
2022-08-22T09:28:01.421Z,56.20
2022-08-22T09:30:43.193Z,55.60
2022-08-22T09:33:17.677Z,56.10
2022-08-22T09:36:00.986Z,55.30
2022-08-22T09:38:36.841Z,56.70
2022-08-22T09:41:40.219Z,56.70
2022-08-22T09:44:29.548Z,56.80
2022-08-22T09:47:24.294Z,56.80
2022-08-22T09:50:17.952Z,58.30
2022-08-22T09:52:47.771Z,56.90
2022-08-22T09:55:35.677Z,58.60
2022-08-22T09:58:30.301Z,61.10
2022-08-22T10:01:09.991Z,59.60
2022-08-22T10:03:46.165Z,60.70
2022-08-22T10:06:30.837Z,63.20
2022-08-22T10:09:31.543Z,66.50
2022-08-22T10:12:12.513Z,71.10
2022-08-22T10:14:59.231Z,77.60
2022-08-22T10:17:33.418Z,72.50
2022-08-22T10:20:19.250Z,76.60
2022-08-22T10:22:54.413Z,79.50
2022-08-22T10:25:31.782Z,84.10
2022-08-22T10:28:28.586Z,84.50
2022-08-22T10:30:58.512Z,83.30
2022-08-22T10:33:39.790Z,84.60
2022-08-22T10:36:11.685Z,87.00
2022-08-22T10:38:53.333Z,86.80
2022-08-22T10:41:53.140Z,84.90
2022-08-22T10:44:29.716Z,88.70
2022-08-22T10:47:06.599Z,91.00
2022-08-22T10:49:53.160Z,91.30
2022-08-22T10:52:31.361Z,92.40
2022-08-22T10:55:00.713Z,93.30
2022-08-22T16:39:37.987Z,96.70
2022-08-22T16:42:23.034Z,97.30
2022-08-22T16:44:57.966Z,96.20
2022-08-22T16:47:31.044Z,95.40
2022-08-22T16:50:01.062Z,94.20
2022-08-22T16:52:28.202Z,93.80
2022-08-22T16:55:05.020Z,93.60
2022-08-22T16:58:17.787Z,93.50
2022-08-22T17:01:03.995Z,92.40
2022-08-22T17:03:34.033Z,91.60
2022-08-22T17:06:13.617Z,91.70
2022-08-22T17:08:52.949Z,93.30
2022-08-22T17:11:56.034Z,91.80
2022-08-22T17:14:35.439Z,92.30
2022-08-22T17:17:10.189Z,91.60
2022-08-22T17:19:58.130Z,91.00
2022-08-22T17:22:46.490Z,91.10
2022-08-22T17:25:32.563Z,93.00
2022-08-22T17:28:17.334Z,92.70
2022-08-22T17:31:07.414Z,92.00
2022-08-22T17:33:40.461Z,91.40
2022-08-22T17:36:41.276Z,91.50
2022-08-22T17:39:32.910Z,90.90
2022-08-22T17:42:44.165Z,90.40
2022-08-22T17:45:44.929Z,91.20
2022-08-22T17:48:35.250Z,91.20
2022-08-22T17:51:13.144Z,92.80
2022-08-22T17:53:54.765Z,91.80
2022-08-22T17:56:48.389Z,91.80
2022-08-22T17:59:33.130Z,92.40
2022-08-22T18:02:26.518Z,93.70
2022-08-22T18:05:11.536Z,93.70
2022-08-22T18:08:37.613Z,93.60
2022-08-22T18:11:24.533Z,93.70
2022-08-22T18:14:05.545Z,94.30
2022-08-22T18:16:42.568Z,94.70
2022-08-22T18:19:12.557Z,97.20
2022-08-22T18:21:44.365Z,98.00
2022-08-22T18:24:11.342Z,98.80
2022-08-22T18:27:05.930Z,99.90
2022-08-22T18:29:47.692Z,99.90
2022-08-22T18:32:28.428Z,99.90
2022-08-22T18:35:10.486Z,99.90
2022-08-22T18:37:43.142Z,99.90
2022-08-22T18:40:49.682Z,99.90
2022-08-22T18:43:36.328Z,99.90
2022-08-22T18:46:25.526Z,99.90
2022-08-22T18:49:14.096Z,99.90
2022-08-22T18:51:41.638Z,99.90
2022-08-22T18:54:22.826Z,99.90
2022-08-22T18:57:14.543Z,99.90
2022-08-22T18:59:53.711Z,99.90
2022-08-22T19:02:41.627Z,99.90
2022-08-22T19:05:40.194Z,99.90
2022-08-22T19:08:27.826Z,99.90
2022-08-22T19:11:11.931Z,99.90
2022-08-22T19:14:12.551Z,99.90
2022-08-22T19:17:20.997Z,99.90
2022-08-22T19:20:41.795Z,99.90
2022-08-22T19:23:33.744Z,99.90
2022-08-22T19:26:28.745Z,99.90
2022-08-22T19:29:04.934Z,99.90
2022-08-22T19:31:44.149Z,99.90
2022-08-22T19:34:22.092Z,99.90
2022-08-22T19:37:32.342Z,99.90
2022-08-22T19:40:11.853Z,99.90
2022-08-22T19:42:41.600Z,99.90
2022-08-22T19:45:26.635Z,99.90
2022-08-22T19:48:14.684Z,99.90
2022-08-22T19:50:42.928Z,99.90
2022-08-22T19:53:32.473Z,99.70
2022-08-22T19:56:02.433Z,99.70
2022-08-22T19:58:32.517Z,99.70
2022-08-22T20:01:24.961Z,99.90
2022-08-22T20:04:04.217Z,99.30
2022-08-22T20:07:04.078Z,99.20
2022-08-22T20:10:05.859Z,99.30
2022-08-22T20:12:40.261Z,99.40
2022-08-22T20:15:24.337Z,99.30
2022-08-22T20:20:58.529Z,99.40
2022-08-22T20:23:30.644Z,99.60
2022-08-22T20:25:59.196Z,99.90
2022-08-22T20:28:46.931Z,99.90
2022-08-22T20:31:23.769Z,99.90
2022-08-22T20:34:03.933Z,99.90
2022-08-22T20:36:31.424Z,99.90
2022-08-22T20:39:02.920Z,99.90
2022-08-22T20:41:41.620Z,99.90
2022-08-22T20:44:21.681Z,99.90
2022-08-22T20:46:53.431Z,99.90
2022-08-22T20:49:32.858Z,99.90
2022-08-22T20:52:03.732Z,99.90
2022-08-22T20:54:33.776Z,99.90
2022-08-22T20:57:17.032Z,99.90
2022-08-22T20:59:57.326Z,99.90
2022-08-22T21:02:26.035Z,99.90
2022-08-22T21:05:00.730Z,99.90
2022-08-22T21:07:37.402Z,99.90
2022-08-22T21:10:37.852Z,99.90
2022-08-22T21:13:09.245Z,99.90
2022-08-22T21:15:54.898Z,99.90
2022-08-22T21:18:29.750Z,99.90
2022-08-22T21:21:17.948Z,99.90
2022-08-22T21:23:47.829Z,99.90
2022-08-22T21:26:30.449Z,99.90
2022-08-22T21:29:07.689Z,99.90
2022-08-22T21:31:51.312Z,99.90
2022-08-22T21:34:35.157Z,99.90
2022-08-22T21:37:18.103Z,99.90
2022-08-22T21:39:51.135Z,99.90
2022-08-22T21:42:27.604Z,99.90
2022-08-22T21:44:58.653Z,99.90
2022-08-22T21:47:32.468Z,99.90
2022-08-22T21:50:08.070Z,99.90
2022-08-22T21:52:38.420Z,99.90
2022-08-22T21:55:24.145Z,99.90
2022-08-22T21:58:34.985Z,99.90
2022-08-22T22:01:30.351Z,99.90
2022-08-22T22:03:59.735Z,99.90
2022-08-22T22:06:27.348Z,99.90
2022-08-22T22:08:54.252Z,99.90
2022-08-22T22:11:21.454Z,99.90
2022-08-22T22:13:49.018Z,99.90
2022-08-22T22:16:23.770Z,99.90
2022-08-22T22:18:50.617Z,99.90
2022-08-22T22:21:17.580Z,99.90
2022-08-22T22:23:44.516Z,99.90
2022-08-22T22:26:11.788Z,99.90
2022-08-22T22:28:41.857Z,99.90
2022-08-22T22:31:09.458Z,99.90
2022-08-22T22:33:39.810Z,99.90
2022-08-22T22:36:21.568Z,99.90
2022-08-22T22:38:51.730Z,99.90
2022-08-22T22:41:20.425Z,99.90
2022-08-22T22:43:47.349Z,99.90
2022-08-22T22:46:14.272Z,99.90
2022-08-22T22:48:41.117Z,99.90
2022-08-22T22:51:11.113Z,99.90
2022-08-22T22:53:40.397Z,99.90
2022-08-22T22:56:12.902Z,99.90
2022-08-22T22:58:40.221Z,99.90
2022-08-22T23:01:14.039Z,99.90
2022-08-22T23:03:41.757Z,99.90
2022-08-22T23:06:17.354Z,99.90
2022-08-22T23:08:44.272Z,99.90
2022-08-22T23:11:22.613Z,99.90
2022-08-22T23:13:50.153Z,99.90
2022-08-22T23:16:20.334Z,99.90
2022-08-22T23:18:47.587Z,99.90
2022-08-22T23:21:34.013Z,99.90
2022-08-22T23:24:01.199Z,99.90
2022-08-22T23:26:28.817Z,99.90
2022-08-22T23:28:57.166Z,99.90
2022-08-22T23:31:32.232Z,99.90
2022-08-22T23:34:06.432Z,99.90
2022-08-22T23:36:33.641Z,99.90
2022-08-22T23:39:00.676Z,99.90
2022-08-22T23:41:27.552Z,99.90
2022-08-22T23:43:55.611Z,99.90
2022-08-22T23:46:24.985Z,99.90
2022-08-22T23:48:52.786Z,99.90
2022-08-22T23:51:23.371Z,99.90
2022-08-22T23:53:51.988Z,99.90
2022-08-22T23:56:40.633Z,99.90
2022-08-22T23:59:11.684Z,99.90
